Nbp Island — V2FH3 — position and weather

sailwx.info

Track history (hours):
 
Tides and Currents Weather Stations Pressure Air Temp Water Temp Dewpoint Dewpoint Depression Visibility Wind Speed Wind Dir Waves Ship Positions

Nbp Island

Last reported at 2017-Mar-13 22:25 UTC. Time now 2017-Mar-28 21:49 UTC.
Position N 56°36' E 017°11'.
Warning: this ship's position is 14 days out of date.

Length 107 m; draft 7.5 m.

Type: Cargo ship. MMSI: 305674000.

Date/timePositionNaut miles runAvg speedWind from/ knotsBaromVisibWave heightAir tempDewpointWater temp
2017-Mar-13 22:25N 56°36' E 017°11'1011.3
2017-Mar-13 21:33N 56°27' E 017°04'1111.4
2017-Mar-13 20:33N 56°16' E 016°57'1111.5
2017-Mar-13 19:33N 56°06' E 016°48'1111.2
2017-Mar-13 18:33N 55°59' E 016°32'1111.2
2017-Mar-13 17:33N 55°54' E 016°15'1111.1
2017-Mar-13 16:33N 55°48' E 015°57'1111.1
2017-Mar-13 15:33N 55°43' E 015°40'1111.2
2017-Mar-13 14:33N 55°38' E 015°23'1111.0
2017-Mar-13 13:33N 55°32' E 015°06'1111.1
2017-Mar-13 12:33N 55°27' E 014°48'1111.3
2017-Mar-13 11:33N 55°20' E 014°33'1111.2
2017-Mar-13 10:33N 55°11' E 014°21'1211.6
2017-Mar-13 09:32N 55°02' E 014°08'1111.0
2017-Mar-13 08:31N 54°58' E 013°50'1111.0
2017-Mar-13 07:30N 54°54' E 013°32'1411.1
2017-Mar-13 06:17N 54°50' E 013°09'811.1
2017-Mar-13 05:32N 54°47' E 012°56'1010.5
2017-Mar-13 04:33N 54°43' E 012°39'1210.8
2017-Mar-13 03:28N 54°37' E 012°22'9 9.7
2017-Mar-13 02:33N 54°29' E 012°15'9 8.5
2017-Mar-13 01:33N 54°25' E 012°03'10 9.7
2017-Mar-13 00:31N 54°25' E 011°45'1010.3
2017-Mar-12 23:33N 54°29' E 011°30'1010.0
2017-Mar-12 22:33N 54°34' E 011°15'10 9.7
2017-Mar-12 21:33N 54°35' E 010°58'1210.7
2017-Mar-12 20:27N 54°34' E 010°38'53 6.6
2017-Mar-12 12:25N 54°06' E 009°20'3 3.9
2017-Mar-12 11:33N 54°02' E 009°18'5 5.1
2017-Mar-12 10:33N 53°58' E 009°15'5 5.4
2017-Mar-12 09:34N 53°54' E 009°09'1 0.9
2017-Mar-12 08:33N 53°53' E 009°08'1 1.4
2017-Mar-12 07:33N 53°53' E 009°06'7 7.3
2017-Mar-12 06:33N 53°51' E 008°54'7 7.1
2017-Mar-12 05:33N 53°53' E 008°43'7 6.8
2017-Mar-12 04:33N 53°58' E 008°35'8 7.9
2017-Mar-12 03:33N 53°59' E 008°22'10 9.6
2017-Mar-12 02:33N 53°59' E 008°05'9 9.3
2017-Mar-12 01:33N 53°57' E 007°50'8 8.3
2017-Mar-12 00:33N 53°55' E 007°36'48 9.0
2017-Mar-11 19:11N 53°44' E 006°16'1312.1
2017-Mar-11 18:08N 53°40' E 005°56'2112.5
2017-Mar-11 16:29N 53°33' E 005°23'1212.5
2017-Mar-11 15:30N 53°29' E 005°04'1311.9
2017-Mar-11 14:24N 53°24' E 004°43'1011.6
2017-Mar-11 13:33N 53°15' E 004°35'1110.7
2017-Mar-11 12:29N 53°05' E 004°26'1110.6
2017-Mar-11 11:25N 52°55' E 004°17'910.3
2017-Mar-11 10:33N 52°47' E 004°11'1110.3
2017-Mar-11 09:31N 52°38' E 004°00'10 9.9
2017-Mar-11 08:33N 52°30' E 003°52'1010.2
2017-Mar-11 07:33N 52°20' E 003°52'1010.3
2017-Mar-11 06:33N 52°10' E 003°54'1010.2
2017-Mar-11 05:33N 52°00' E 004°00'1313.2
2017-Mar-11 04:34N 51°54' E 004°19'8 8.2
2017-Mar-11 03:33N 51°50' E 004°30'6 5.6
2017-Mar-11 02:33N 51°48' E 004°39'0 0.0
2017-Mar-11 01:33N 51°48' E 004°39'0 0.0
2017-Mar-11 00:33N 51°48' E 004°39'0 0.0
2017-Mar-10 23:34N 51°48' E 004°39'0 0.0
2017-Mar-10 22:33N 51°48' E 004°39'0 0.0
2017-Mar-10 21:33N 51°48' E 004°39'0 0.0
2017-Mar-10 20:34N 51°48' E 004°39'0 0.0
2017-Mar-10 19:34N 51°48' E 004°39'0 0.0
2017-Mar-10 18:34N 51°48' E 004°39'0 0.0
2017-Mar-10 17:34N 51°48' E 004°39'0 0.0
2017-Mar-10 16:33N 51°48' E 004°39'0 0.0
2017-Mar-10 15:33N 51°48' E 004°39'0 0.0
2017-Mar-10 14:33N 51°48' E 004°39'0 0.0
2017-Mar-10 13:34N 51°48' E 004°39'0 0.0
2017-Mar-10 12:33N 51°48' E 004°39'0 0.0
2017-Mar-10 11:33N 51°48' E 004°39'0 0.0
2017-Mar-10 10:34N 51°48' E 004°39'0 0.0
2017-Mar-10 09:33N 51°48' E 004°39'0 0.0
2017-Mar-10 08:33N 51°48' E 004°39'0 0.0
2017-Mar-10 07:33N 51°48' E 004°39'0 0.0
2017-Mar-10 06:33N 51°48' E 004°39'0 0.0
2017-Mar-10 05:33N 51°48' E 004°39'0 0.0
2017-Mar-10 04:33N 51°48' E 004°39'0 0.0
2017-Mar-10 03:34N 51°48' E 004°39'0 0.0
2017-Mar-10 02:34N 51°48' E 004°39'0 0.0
2017-Mar-10 01:33N 51°48' E 004°39'0 0.0
2017-Mar-10 00:33N 51°48' E 004°39'0 0.0
2017-Mar-09 23:33N 51°48' E 004°39'0 0.0
2017-Mar-09 22:33N 51°48' E 004°39'0 0.0
2017-Mar-09 21:33N 51°48' E 004°39'0 0.0
2017-Mar-09 20:33N 51°48' E 004°39'0 0.0
2017-Mar-09 19:33N 51°48' E 004°39'0 0.0
2017-Mar-09 18:33N 51°48' E 004°39'0 0.0
2017-Mar-09 17:33N 51°48' E 004°39'0 0.0
2017-Mar-09 16:33N 51°48' E 004°39'0 0.0
2017-Mar-09 15:33N 51°48' E 004°39'0 0.0
2017-Mar-09 14:33N 51°48' E 004°39'0 0.0
2017-Mar-09 13:33N 51°48' E 004°39'0 0.0
2017-Mar-09 12:33N 51°48' E 004°39'0 0.0
2017-Mar-09 11:33N 51°48' E 004°39'0 0.0
2017-Mar-09 10:33N 51°48' E 004°39'0 0.0
2017-Mar-09 09:33N 51°48' E 004°39'0 0.0
2017-Mar-09 08:33N 51°48' E 004°39'0 0.0
2017-Mar-09 07:33N 51°48' E 004°39'0 0.0
2017-Mar-09 06:33N 51°48' E 004°39'0 0.0
2017-Mar-09 05:33N 51°48' E 004°39'0 0.0
2017-Mar-09 04:34N 51°48' E 004°39'0 0.0
2017-Mar-09 03:34N 51°48' E 004°39'0 0.0
2017-Mar-09 02:34N 51°48' E 004°39'0 0.0
2017-Mar-09 01:33N 51°48' E 004°39'0 0.0
2017-Mar-09 00:33N 51°48' E 004°39'0 0.0
2017-Mar-08 23:33N 51°48' E 004°39'0 0.0
2017-Mar-08 22:33N 51°48' E 004°39'0 0.0
2017-Mar-08 21:34N 51°48' E 004°39'0 0.0
2017-Mar-08 20:34N 51°48' E 004°39'0 0.0
2017-Mar-08 19:33N 51°48' E 004°39'0 0.0
2017-Mar-08 18:34N 51°48' E 004°39'0 0.0
2017-Mar-08 17:33N 51°48' E 004°39'0 0.0
2017-Mar-08 16:34N 51°48' E 004°39'0 0.0
2017-Mar-08 15:33N 51°48' E 004°39'0 0.0
2017-Mar-08 14:33N 51°48' E 004°39'0 0.0
2017-Mar-08 13:33N 51°48' E 004°39'0 0.0
2017-Mar-08 12:33N 51°48' E 004°39'0 0.0
2017-Mar-08 11:34N 51°48' E 004°39'0 0.0
2017-Mar-08 10:33N 51°48' E 004°39'0 0.0
2017-Mar-08 09:33N 51°48' E 004°39'0 0.0
2017-Mar-08 08:33N 51°48' E 004°39'0 0.0
2017-Mar-08 07:33N 51°48' E 004°39'0 0.0
2017-Mar-08 06:33N 51°48' E 004°39'0 0.0
2017-Mar-08 05:33N 51°48' E 004°39'0 0.0
2017-Mar-08 04:34N 51°48' E 004°39'0 0.0
2017-Mar-08 03:34N 51°48' E 004°39'0 0.0
2017-Mar-08 02:34N 51°48' E 004°39'0 0.0
2017-Mar-08 01:34N 51°48' E 004°39'0 0.0
2017-Mar-08 00:34N 51°48' E 004°39'0 0.0
2017-Mar-07 23:34N 51°48' E 004°39'0 0.0
2017-Mar-07 22:33N 51°48' E 004°39'0 0.0
2017-Mar-07 21:33N 51°48' E 004°39'0 0.0
2017-Mar-07 20:34N 51°48' E 004°39'0 0.0
2017-Mar-07 19:34N 51°48' E 004°39'0 0.4
2017-Mar-07 18:34N 51°48' E 004°38'7 7.4
2017-Mar-07 17:34N 51°50' E 004°27'7 6.8
2017-Mar-07 16:34N 51°54' E 004°17'6 6.5
2017-Mar-07 15:33N 51°58' E 004°09'8 8.3
2017-Mar-07 14:33N 51°60' E 003°56'8 7.7
2017-Mar-07 13:34N 51°55' E 003°46'0 0.2
2017-Mar-07 12:30N 51°55' E 003°46'0 0.0
2017-Mar-07 11:33N 51°55' E 003°46'0 0.0
2017-Mar-07 10:33N 51°55' E 003°46'0 0.0
2017-Mar-07 09:28N 51°55' E 003°46'0 0.0
2017-Mar-07 08:33N 51°55' E 003°46'0 0.0
2017-Mar-07 07:30N 51°55' E 003°46'0 0.0
2017-Mar-07 06:33N 51°55' E 003°46'0 0.1
2017-Mar-07 05:31N 51°55' E 003°46'0 0.0
2017-Mar-07 04:33N 51°55' E 003°46'0 0.0
2017-Mar-07 03:33N 51°55' E 003°46'0 0.0
2017-Mar-07 02:31N 51°55' E 003°46'0 0.0
2017-Mar-07 01:31N 51°55' E 003°46'0 0.0
2017-Mar-07 00:33N 51°55' E 003°46'0 0.0
2017-Mar-06 23:33N 51°55' E 003°46'0 0.0
2017-Mar-06 22:33N 51°55' E 003°46'0 0.0
2017-Mar-06 21:25N 51°55' E 003°46'0 0.0
2017-Mar-06 20:31N 51°55' E 003°46'0 0.0
2017-Mar-06 19:33N 51°55' E 003°46'0 0.0
2017-Mar-06 18:33N 51°55' E 003°46'0 0.1
2017-Mar-06 17:33N 51°55' E 003°46'0 0.0
2017-Mar-06 16:33N 51°55' E 003°46'0 0.1
2017-Mar-06 15:33N 51°55' E 003°46'0 0.0
2017-Mar-06 14:28N 51°55' E 003°46'0 0.0
2017-Mar-06 13:30N 51°55' E 003°46'0 0.1
2017-Mar-06 12:33N 51°55' E 003°46'0 0.1
2017-Mar-06 11:33N 51°55' E 003°46'0 0.0
2017-Mar-06 10:25N 51°55' E 003°46'0 0.0
2017-Mar-06 09:33N 51°55' E 003°46'0 0.0
2017-Mar-06 08:33N 51°55' E 003°46'0 0.0
2017-Mar-06 07:30N 51°55' E 003°46'0 0.0
2017-Mar-06 06:30N 51°55' E 003°46'0 0.0
2017-Mar-06 05:33N 51°55' E 003°46'0 0.0
2017-Mar-06 04:33N 51°55' E 003°46'0 0.1
2017-Mar-06 03:33N 51°55' E 003°46'0 0.0
2017-Mar-06 02:33N 51°55' E 003°46'0 0.0
2017-Mar-06 01:33N 51°55' E 003°46'0 0.1
2017-Mar-06 00:28N 51°55' E 003°46'0 0.0
2017-Mar-05 23:33N 51°55' E 003°46'0 0.0
2017-Mar-05 22:33N 51°55' E 003°46'0 0.0
2017-Mar-05 21:33N 51°55' E 003°46'0 0.0
2017-Mar-05 20:30N 51°55' E 003°46'0 0.0
2017-Mar-05 19:33N 51°55' E 003°46'0 0.0
2017-Mar-05 18:31N 51°55' E 003°46'0 0.0
2017-Mar-05 17:33N 51°55' E 003°46'0 0.0
2017-Mar-05 16:33N 51°55' E 003°46'0 0.0
2017-Mar-05 15:25N 51°55' E 003°46'0 0.0
2017-Mar-05 14:33N 51°55' E 003°46'59 8.4
2017-Mar-05 07:33N 51°32' E 002°18'1312.9
2017-Mar-05 06:34N 51°21' E 002°10'1312.9
2017-Mar-05 05:33N 51°11' E 001°57'1414.2
2017-Mar-05 04:33N 51°02' E 001°39'7412.3
2017-Mar-04 22:32N 50°20' E 000°02'1212.0
2017-Mar-04 21:33N 50°24' W 000°16'1110.9
2017-Mar-04 20:31N 50°30' W 000°31'1010.6
2017-Mar-04 19:33N 50°34' W 000°45'9 9.4
2017-Mar-04 18:33N 50°39' W 000°59'10 9.7
2017-Mar-04 17:33N 50°46' W 001°09'1111.1
2017-Mar-04 16:33N 50°52' W 001°23'3 2.6
2017-Mar-04 15:29N 50°54' W 001°26'0 0.0
2017-Mar-04 14:29N 50°54' W 001°26'0 0.0
2017-Mar-04 13:29N 50°54' W 001°26'0 0.0
2017-Mar-04 12:32N 50°54' W 001°26'0 0.0
2017-Mar-04 11:32N 50°54' W 001°26'0 0.0
2017-Mar-04 10:32N 50°54' W 001°26'0 0.0
2017-Mar-04 09:32N 50°54' W 001°26'0 0.0
2017-Mar-04 08:32N 50°54' W 001°26'0 0.0
2017-Mar-04 07:29N 50°54' W 001°26'0 0.0
2017-Mar-04 06:32N 50°54' W 001°26'0 0.0
2017-Mar-04 05:29N 50°54' W 001°26'0 0.0
2017-Mar-04 04:32N 50°54' W 001°26'0 0.0
2017-Mar-04 03:29N 50°54' W 001°26'0 0.0
2017-Mar-04 02:32N 50°54' W 001°26'0 0.0
2017-Mar-04 01:32N 50°54' W 001°26'0 0.0
2017-Mar-04 00:32N 50°54' W 001°26'0 0.0
2017-Mar-03 23:32N 50°54' W 001°26'0 0.0
2017-Mar-03 22:29N 50°54' W 001°26'  
Track history (hours):
 
Tides and Currents Weather Stations Pressure Air Temp Water Temp Dewpoint Dewpoint Depression Visibility Wind Speed Wind Dir Waves Ship Positions

Nbp Island

Last reported at 2017-Mar-13 22:25 UTC. Time now 2017-Mar-28 21:49 UTC.
Position N 56°36' E 017°11'.
Warning: this ship's position is 14 days out of date.

Length 107 m; draft 7.5 m.

Type: Cargo ship. MMSI: 305674000.

Date/timePositionNaut miles runAvg speedWind from/ knotsBaromVisibWave heightAir tempDewpointWater temp
2017-Mar-13 22:25N 56°36' E 017°11'1011.3
2017-Mar-13 21:33N 56°27' E 017°04'1111.4
2017-Mar-13 20:33N 56°16' E 016°57'1111.5
2017-Mar-13 19:33N 56°06' E 016°48'1111.2
2017-Mar-13 18:33N 55°59' E 016°32'1111.2
2017-Mar-13 17:33N 55°54' E 016°15'1111.1
2017-Mar-13 16:33N 55°48' E 015°57'1111.1
2017-Mar-13 15:33N 55°43' E 015°40'1111.2
2017-Mar-13 14:33N 55°38' E 015°23'1111.0
2017-Mar-13 13:33N 55°32' E 015°06'1111.1
2017-Mar-13 12:33N 55°27' E 014°48'1111.3
2017-Mar-13 11:33N 55°20' E 014°33'1111.2
2017-Mar-13 10:33N 55°11' E 014°21'1211.6
2017-Mar-13 09:32N 55°02' E 014°08'1111.0
2017-Mar-13 08:31N 54°58' E 013°50'1111.0
2017-Mar-13 07:30N 54°54' E 013°32'1411.1
2017-Mar-13 06:17N 54°50' E 013°09'811.1
2017-Mar-13 05:32N 54°47' E 012°56'1010.5
2017-Mar-13 04:33N 54°43' E 012°39'1210.8
2017-Mar-13 03:28N 54°37' E 012°22'9 9.7
2017-Mar-13 02:33N 54°29' E 012°15'9 8.5
2017-Mar-13 01:33N 54°25' E 012°03'10 9.7
2017-Mar-13 00:31N 54°25' E 011°45'1010.3
2017-Mar-12 23:33N 54°29' E 011°30'1010.0
2017-Mar-12 22:33N 54°34' E 011°15'10 9.7
2017-Mar-12 21:33N 54°35' E 010°58'1210.7
2017-Mar-12 20:27N 54°34' E 010°38'53 6.6
2017-Mar-12 12:25N 54°06' E 009°20'3 3.9
2017-Mar-12 11:33N 54°02' E 009°18'5 5.1
2017-Mar-12 10:33N 53°58' E 009°15'5 5.4
2017-Mar-12 09:34N 53°54' E 009°09'1 0.9
2017-Mar-12 08:33N 53°53' E 009°08'1 1.4
2017-Mar-12 07:33N 53°53' E 009°06'7 7.3
2017-Mar-12 06:33N 53°51' E 008°54'7 7.1
2017-Mar-12 05:33N 53°53' E 008°43'7 6.8
2017-Mar-12 04:33N 53°58' E 008°35'8 7.9
2017-Mar-12 03:33N 53°59' E 008°22'10 9.6
2017-Mar-12 02:33N 53°59' E 008°05'9 9.3
2017-Mar-12 01:33N 53°57' E 007°50'8 8.3
2017-Mar-12 00:33N 53°55' E 007°36'48 9.0
2017-Mar-11 19:11N 53°44' E 006°16'1312.1
2017-Mar-11 18:08N 53°40' E 005°56'2112.5
2017-Mar-11 16:29N 53°33' E 005°23'1212.5
2017-Mar-11 15:30N 53°29' E 005°04'1311.9
2017-Mar-11 14:24N 53°24' E 004°43'1011.6
2017-Mar-11 13:33N 53°15' E 004°35'1110.7
2017-Mar-11 12:29N 53°05' E 004°26'1110.6
2017-Mar-11 11:25N 52°55' E 004°17'910.3
2017-Mar-11 10:33N 52°47' E 004°11'1110.3
2017-Mar-11 09:31N 52°38' E 004°00'10 9.9
2017-Mar-11 08:33N 52°30' E 003°52'1010.2
2017-Mar-11 07:33N 52°20' E 003°52'1010.3
2017-Mar-11 06:33N 52°10' E 003°54'1010.2
2017-Mar-11 05:33N 52°00' E 004°00'1313.2
2017-Mar-11 04:34N 51°54' E 004°19'8 8.2
2017-Mar-11 03:33N 51°50' E 004°30'6 5.6
2017-Mar-11 02:33N 51°48' E 004°39'0 0.0
2017-Mar-11 01:33N 51°48' E 004°39'0 0.0
2017-Mar-11 00:33N 51°48' E 004°39'0 0.0
2017-Mar-10 23:34N 51°48' E 004°39'0 0.0
2017-Mar-10 22:33N 51°48' E 004°39'0 0.0
2017-Mar-10 21:33N 51°48' E 004°39'0 0.0
2017-Mar-10 20:34N 51°48' E 004°39'0 0.0
2017-Mar-10 19:34N 51°48' E 004°39'0 0.0
2017-Mar-10 18:34N 51°48' E 004°39'0 0.0
2017-Mar-10 17:34N 51°48' E 004°39'0 0.0
2017-Mar-10 16:33N 51°48' E 004°39'0 0.0
2017-Mar-10 15:33N 51°48' E 004°39'0 0.0
2017-Mar-10 14:33N 51°48' E 004°39'0 0.0
2017-Mar-10 13:34N 51°48' E 004°39'0 0.0
2017-Mar-10 12:33N 51°48' E 004°39'0 0.0
2017-Mar-10 11:33N 51°48' E 004°39'0 0.0
2017-Mar-10 10:34N 51°48' E 004°39'0 0.0
2017-Mar-10 09:33N 51°48' E 004°39'0 0.0
2017-Mar-10 08:33N 51°48' E 004°39'0 0.0
2017-Mar-10 07:33N 51°48' E 004°39'0 0.0
2017-Mar-10 06:33N 51°48' E 004°39'0 0.0
2017-Mar-10 05:33N 51°48' E 004°39'0 0.0
2017-Mar-10 04:33N 51°48' E 004°39'0 0.0
2017-Mar-10 03:34N 51°48' E 004°39'0 0.0
2017-Mar-10 02:34N 51°48' E 004°39'0 0.0
2017-Mar-10 01:33N 51°48' E 004°39'0 0.0
2017-Mar-10 00:33N 51°48' E 004°39'0 0.0
2017-Mar-09 23:33N 51°48' E 004°39'0 0.0
2017-Mar-09 22:33N 51°48' E 004°39'0 0.0
2017-Mar-09 21:33N 51°48' E 004°39'0 0.0
2017-Mar-09 20:33N 51°48' E 004°39'0 0.0
2017-Mar-09 19:33N 51°48' E 004°39'0 0.0
2017-Mar-09 18:33N 51°48' E 004°39'0 0.0
2017-Mar-09 17:33N 51°48' E 004°39'0 0.0
2017-Mar-09 16:33N 51°48' E 004°39'0 0.0
2017-Mar-09 15:33N 51°48' E 004°39'0 0.0
2017-Mar-09 14:33N 51°48' E 004°39'0 0.0
2017-Mar-09 13:33N 51°48' E 004°39'0 0.0
2017-Mar-09 12:33N 51°48' E 004°39'0 0.0
2017-Mar-09 11:33N 51°48' E 004°39'0 0.0
2017-Mar-09 10:33N 51°48' E 004°39'0 0.0
2017-Mar-09 09:33N 51°48' E 004°39'0 0.0
2017-Mar-09 08:33N 51°48' E 004°39'0 0.0
2017-Mar-09 07:33N 51°48' E 004°39'0 0.0
2017-Mar-09 06:33N 51°48' E 004°39'0 0.0
2017-Mar-09 05:33N 51°48' E 004°39'0 0.0
2017-Mar-09 04:34N 51°48' E 004°39'0 0.0
2017-Mar-09 03:34N 51°48' E 004°39'0 0.0
2017-Mar-09 02:34N 51°48' E 004°39'0 0.0
2017-Mar-09 01:33N 51°48' E 004°39'0 0.0
2017-Mar-09 00:33N 51°48' E 004°39'0 0.0
2017-Mar-08 23:33N 51°48' E 004°39'0 0.0
2017-Mar-08 22:33N 51°48' E 004°39'0 0.0
2017-Mar-08 21:34N 51°48' E 004°39'0 0.0
2017-Mar-08 20:34N 51°48' E 004°39'0 0.0
2017-Mar-08 19:33N 51°48' E 004°39'0 0.0
2017-Mar-08 18:34N 51°48' E 004°39'0 0.0
2017-Mar-08 17:33N 51°48' E 004°39'0 0.0
2017-Mar-08 16:34N 51°48' E 004°39'0 0.0
2017-Mar-08 15:33N 51°48' E 004°39'0 0.0
2017-Mar-08 14:33N 51°48' E 004°39'0 0.0
2017-Mar-08 13:33N 51°48' E 004°39'0 0.0
2017-Mar-08 12:33N 51°48' E 004°39'0 0.0
2017-Mar-08 11:34N 51°48' E 004°39'0 0.0
2017-Mar-08 10:33N 51°48' E 004°39'0 0.0
2017-Mar-08 09:33N 51°48' E 004°39'0 0.0
2017-Mar-08 08:33N 51°48' E 004°39'0 0.0
2017-Mar-08 07:33N 51°48' E 004°39'0 0.0
2017-Mar-08 06:33N 51°48' E 004°39'0 0.0
2017-Mar-08 05:33N 51°48' E 004°39'0 0.0
2017-Mar-08 04:34N 51°48' E 004°39'0 0.0
2017-Mar-08 03:34N 51°48' E 004°39'0 0.0
2017-Mar-08 02:34N 51°48' E 004°39'0 0.0
2017-Mar-08 01:34N 51°48' E 004°39'0 0.0
2017-Mar-08 00:34N 51°48' E 004°39'0 0.0
2017-Mar-07 23:34N 51°48' E 004°39'0 0.0
2017-Mar-07 22:33N 51°48' E 004°39'0 0.0
2017-Mar-07 21:33N 51°48' E 004°39'0 0.0
2017-Mar-07 20:34N 51°48' E 004°39'0 0.0
2017-Mar-07 19:34N 51°48' E 004°39'0 0.4
2017-Mar-07 18:34N 51°48' E 004°38'7 7.4
2017-Mar-07 17:34N 51°50' E 004°27'7 6.8
2017-Mar-07 16:34N 51°54' E 004°17'6 6.5
2017-Mar-07 15:33N 51°58' E 004°09'8 8.3
2017-Mar-07 14:33N 51°60' E 003°56'8 7.7
2017-Mar-07 13:34N 51°55' E 003°46'0 0.2
2017-Mar-07 12:30N 51°55' E 003°46'0 0.0
2017-Mar-07 11:33N 51°55' E 003°46'0 0.0
2017-Mar-07 10:33N 51°55' E 003°46'0 0.0
2017-Mar-07 09:28N 51°55' E 003°46'0 0.0
2017-Mar-07 08:33N 51°55' E 003°46'0 0.0
2017-Mar-07 07:30N 51°55' E 003°46'0 0.0
2017-Mar-07 06:33N 51°55' E 003°46'0 0.1
2017-Mar-07 05:31N 51°55' E 003°46'0 0.0
2017-Mar-07 04:33N 51°55' E 003°46'0 0.0
2017-Mar-07 03:33N 51°55' E 003°46'0 0.0
2017-Mar-07 02:31N 51°55' E 003°46'0 0.0
2017-Mar-07 01:31N 51°55' E 003°46'0 0.0
2017-Mar-07 00:33N 51°55' E 003°46'0 0.0
2017-Mar-06 23:33N 51°55' E 003°46'0 0.0
2017-Mar-06 22:33N 51°55' E 003°46'0 0.0
2017-Mar-06 21:25N 51°55' E 003°46'0 0.0
2017-Mar-06 20:31N 51°55' E 003°46'0 0.0
2017-Mar-06 19:33N 51°55' E 003°46'0 0.0
2017-Mar-06 18:33N 51°55' E 003°46'0 0.1
2017-Mar-06 17:33N 51°55' E 003°46'0 0.0
2017-Mar-06 16:33N 51°55' E 003°46'0 0.1
2017-Mar-06 15:33N 51°55' E 003°46'0 0.0
2017-Mar-06 14:28N 51°55' E 003°46'0 0.0
2017-Mar-06 13:30N 51°55' E 003°46'0 0.1
2017-Mar-06 12:33N 51°55' E 003°46'0 0.1
2017-Mar-06 11:33N 51°55' E 003°46'0 0.0
2017-Mar-06 10:25N 51°55' E 003°46'0 0.0
2017-Mar-06 09:33N 51°55' E 003°46'0 0.0
2017-Mar-06 08:33N 51°55' E 003°46'0 0.0
2017-Mar-06 07:30N 51°55' E 003°46'0 0.0
2017-Mar-06 06:30N 51°55' E 003°46'0 0.0
2017-Mar-06 05:33N 51°55' E 003°46'0 0.0
2017-Mar-06 04:33N 51°55' E 003°46'0 0.1
2017-Mar-06 03:33N 51°55' E 003°46'0 0.0
2017-Mar-06 02:33N 51°55' E 003°46'0 0.0
2017-Mar-06 01:33N 51°55' E 003°46'0 0.1
2017-Mar-06 00:28N 51°55' E 003°46'0 0.0
2017-Mar-05 23:33N 51°55' E 003°46'0 0.0
2017-Mar-05 22:33N 51°55' E 003°46'0 0.0
2017-Mar-05 21:33N 51°55' E 003°46'0 0.0
2017-Mar-05 20:30N 51°55' E 003°46'0 0.0
2017-Mar-05 19:33N 51°55' E 003°46'0 0.0
2017-Mar-05 18:31N 51°55' E 003°46'0 0.0
2017-Mar-05 17:33N 51°55' E 003°46'0 0.0
2017-Mar-05 16:33N 51°55' E 003°46'0 0.0
2017-Mar-05 15:25N 51°55' E 003°46'0 0.0
2017-Mar-05 14:33N 51°55' E 003°46'59 8.4
2017-Mar-05 07:33N 51°32' E 002°18'1312.9
2017-Mar-05 06:34N 51°21' E 002°10'1312.9
2017-Mar-05 05:33N 51°11' E 001°57'1414.2
2017-Mar-05 04:33N 51°02' E 001°39'7412.3
2017-Mar-04 22:32N 50°20' E 000°02'1212.0
2017-Mar-04 21:33N 50°24' W 000°16'1110.9
2017-Mar-04 20:31N 50°30' W 000°31'1010.6
2017-Mar-04 19:33N 50°34' W 000°45'9 9.4
2017-Mar-04 18:33N 50°39' W 000°59'10 9.7
2017-Mar-04 17:33N 50°46' W 001°09'1111.1
2017-Mar-04 16:33N 50°52' W 001°23'3 2.6
2017-Mar-04 15:29N 50°54' W 001°26'0 0.0
2017-Mar-04 14:29N 50°54' W 001°26'0 0.0
2017-Mar-04 13:29N 50°54' W 001°26'0 0.0
2017-Mar-04 12:32N 50°54' W 001°26'0 0.0
2017-Mar-04 11:32N 50°54' W 001°26'0 0.0
2017-Mar-04 10:32N 50°54' W 001°26'0 0.0
2017-Mar-04 09:32N 50°54' W 001°26'0 0.0
2017-Mar-04 08:32N 50°54' W 001°26'0 0.0
2017-Mar-04 07:29N 50°54' W 001°26'0 0.0
2017-Mar-04 06:32N 50°54' W 001°26'0 0.0
2017-Mar-04 05:29N 50°54' W 001°26'0 0.0
2017-Mar-04 04:32N 50°54' W 001°26'0 0.0
2017-Mar-04 03:29N 50°54' W 001°26'0 0.0
2017-Mar-04 02:32N 50°54' W 001°26'0 0.0
2017-Mar-04 01:32N 50°54' W 001°26'0 0.0
2017-Mar-04 00:32N 50°54' W 001°26'0 0.0
2017-Mar-03 23:32N 50°54' W 001°26'0 0.0
2017-Mar-03 22:29N 50°54' W 001°26'  

Dump ship's entire track history